createdAt,value
2022-09-25T00:01:21.076Z,100.00
2022-09-25T00:03:49.547Z,100.00
2022-09-25T00:06:20.006Z,100.00
2022-09-25T00:08:48.088Z,100.00
2022-09-25T00:11:21.283Z,100.00
2022-09-25T00:13:48.875Z,100.00
2022-09-25T00:16:22.812Z,100.00
2022-09-25T00:19:09.283Z,100.00
2022-09-25T00:21:37.427Z,100.00
2022-09-25T00:24:10.961Z,100.00
2022-09-25T00:26:40.190Z,100.00
2022-09-25T00:29:10.763Z,100.00
2022-09-25T00:31:38.892Z,100.00
2022-09-25T00:34:06.562Z,100.00
2022-09-25T00:36:35.526Z,100.00
2022-09-25T00:39:03.552Z,100.00
2022-09-25T00:41:32.128Z,100.00
2022-09-25T00:44:01.729Z,100.00
2022-09-25T00:46:40.102Z,100.00
2022-09-25T00:49:14.621Z,100.00
2022-09-25T00:51:57.710Z,100.00
2022-09-25T00:54:30.340Z,100.00
2022-09-25T00:57:01.178Z,100.00
2022-09-25T00:59:34.502Z,100.00
2022-09-25T01:02:02.899Z,100.00
2022-09-25T01:04:34.724Z,100.00
2022-09-25T01:07:03.080Z,100.00
2022-09-25T01:09:31.192Z,100.00
2022-09-25T01:11:58.780Z,100.00
2022-09-25T01:14:26.959Z,100.00
2022-09-25T01:17:14.692Z,100.00
2022-09-25T01:19:45.804Z,100.00
2022-09-25T01:22:47.197Z,100.00
2022-09-25T01:25:55.026Z,100.00
2022-09-25T01:28:31.668Z,100.00
2022-09-25T01:31:04.595Z,100.00
2022-09-25T01:33:37.193Z,100.00
2022-09-25T01:36:29.856Z,100.00
2022-09-25T01:39:08.141Z,100.00
2022-09-25T01:41:48.000Z,100.00
2022-09-25T01:44:23.528Z,100.00
2022-09-25T01:46:53.725Z,100.00
2022-09-25T01:49:35.469Z,100.00
2022-09-25T01:52:10.320Z,100.00
2022-09-25T01:54:43.944Z,100.00
2022-09-25T01:57:27.160Z,100.00
2022-09-25T01:59:59.695Z,100.00
2022-09-25T02:02:33.978Z,100.00
2022-09-25T02:05:09.731Z,100.00
2022-09-25T02:07:50.939Z,100.00
2022-09-25T02:10:26.676Z,100.00
2022-09-25T02:12:58.595Z,100.00
2022-09-25T02:15:32.358Z,100.00
2022-09-25T02:18:20.508Z,100.00
2022-09-25T02:20:53.983Z,100.00
2022-09-25T02:23:25.222Z,100.00
2022-09-25T02:25:52.709Z,100.00
2022-09-25T02:28:23.016Z,100.00
2022-09-25T02:30:53.885Z,100.00
2022-09-25T02:33:21.426Z,100.00
2022-09-25T02:35:50.107Z,100.00
2022-09-25T02:38:17.822Z,100.00
2022-09-25T02:40:59.026Z,100.00
2022-09-25T02:43:49.300Z,100.00
2022-09-25T02:46:39.236Z,100.00
2022-09-25T02:49:15.553Z,100.00
2022-09-25T02:52:01.852Z,100.00
2022-09-25T02:54:33.117Z,100.00
2022-09-25T02:57:09.440Z,100.00
2022-09-25T02:59:45.013Z,100.00
2022-09-25T03:02:16.276Z,100.00
2022-09-25T03:04:48.806Z,100.00
2022-09-25T03:07:18.405Z,100.00
2022-09-25T03:09:49.009Z,100.00
2022-09-25T03:12:17.176Z,100.00
2022-09-25T03:14:44.958Z,100.00
2022-09-25T03:17:13.917Z,100.00
2022-09-25T03:19:41.429Z,100.00
2022-09-25T03:22:09.018Z,100.00
2022-09-25T03:24:37.127Z,100.00
2022-09-25T03:27:04.700Z,100.00
2022-09-25T03:29:32.256Z,100.00
2022-09-25T03:31:59.805Z,100.00
2022-09-25T03:34:27.384Z,100.00
2022-09-25T03:36:55.489Z,100.00
2022-09-25T03:39:23.615Z,100.00
2022-09-25T03:41:51.608Z,100.00
2022-09-25T03:44:19.544Z,100.00
2022-09-25T03:46:47.319Z,100.00
2022-09-25T03:49:15.252Z,100.00
2022-09-25T03:51:42.867Z,100.00
2022-09-25T03:54:10.398Z,100.00
2022-09-25T03:56:38.428Z,100.00
2022-09-25T03:59:06.397Z,100.00
2022-09-25T04:01:34.775Z,100.00
2022-09-25T04:04:03.448Z,100.00
2022-09-25T04:06:31.533Z,100.00
2022-09-25T04:08:59.063Z,100.00
2022-09-25T04:11:26.686Z,100.00
2022-09-25T04:13:56.972Z,100.00
2022-09-25T04:16:24.942Z,100.00
2022-09-25T04:18:52.444Z,100.00
2022-09-25T04:21:20.464Z,100.00
2022-09-25T04:24:07.924Z,100.00
2022-09-25T04:26:36.559Z,100.00
2022-09-25T04:29:04.932Z,100.00
2022-09-25T04:31:32.706Z,100.00
2022-09-25T04:34:02.545Z,100.00
2022-09-25T04:36:30.105Z,100.00
2022-09-25T04:38:57.670Z,100.00
2022-09-25T04:41:25.742Z,100.00
2022-09-25T04:43:53.495Z,100.00
2022-09-25T04:46:22.717Z,100.00
2022-09-25T04:48:50.775Z,100.00
2022-09-25T04:51:18.903Z,100.00
2022-09-25T04:53:46.781Z,100.00
2022-09-25T04:56:16.290Z,100.00
2022-09-25T04:58:49.393Z,100.00
2022-09-25T05:01:20.188Z,100.00
2022-09-25T05:03:54.139Z,100.00
2022-09-25T05:06:23.185Z,100.00
2022-09-25T05:08:50.902Z,100.00
2022-09-25T05:11:19.337Z,100.00
2022-09-25T05:13:51.490Z,100.00
2022-09-25T05:16:19.881Z,100.00
2022-09-25T05:18:47.925Z,100.00
2022-09-25T05:21:15.442Z,100.00
2022-09-25T05:23:43.044Z,100.00
2022-09-25T05:26:11.259Z,100.00
2022-09-25T05:28:39.829Z,100.00
2022-09-25T05:31:07.828Z,100.00
2022-09-25T05:33:35.986Z,100.00
2022-09-25T05:36:06.526Z,100.00
2022-09-25T05:38:35.635Z,100.00
2022-09-25T05:41:05.070Z,100.00
2022-09-25T05:43:33.776Z,100.00
2022-09-25T05:46:01.754Z,100.00
2022-09-25T05:48:29.432Z,100.00
2022-09-25T05:50:58.642Z,100.00
2022-09-25T05:53:26.914Z,100.00
2022-09-25T05:55:58.695Z,100.00
2022-09-25T05:58:28.313Z,100.00
2022-09-25T06:00:59.461Z,100.00
2022-09-25T06:03:29.620Z,100.00
2022-09-25T06:06:01.168Z,100.00
2022-09-25T06:08:32.826Z,100.00
2022-09-25T06:11:03.081Z,100.00
2022-09-25T06:13:33.652Z,100.00
2022-09-25T06:16:01.800Z,100.00
2022-09-25T06:18:29.954Z,100.00
2022-09-25T06:21:04.979Z,100.00
2022-09-25T06:23:32.534Z,100.00
2022-09-25T06:26:02.009Z,100.00
2022-09-25T06:28:31.046Z,100.00
2022-09-25T06:31:03.268Z,100.00
2022-09-25T06:33:31.295Z,100.00
2022-09-25T06:35:58.990Z,100.00
2022-09-25T06:38:26.616Z,100.00
2022-09-25T06:40:57.334Z,100.00
2022-09-25T06:43:28.643Z,100.00
2022-09-25T06:46:02.604Z,100.00
2022-09-25T06:48:31.624Z,100.00
2022-09-25T06:51:00.952Z,100.00
2022-09-25T06:53:28.566Z,100.00
2022-09-25T06:55:58.972Z,100.00
2022-09-25T06:58:27.607Z,100.00
2022-09-25T07:00:56.739Z,100.00
2022-09-25T07:03:43.019Z,100.00
2022-09-25T07:06:18.670Z,100.00
2022-09-25T07:08:48.134Z,100.00
2022-09-25T07:11:18.987Z,100.00
2022-09-25T07:13:48.301Z,100.00
2022-09-25T07:16:18.787Z,100.00
2022-09-25T07:18:46.994Z,100.00
2022-09-25T07:21:17.660Z,100.00
2022-09-25T07:23:48.868Z,100.00
2022-09-25T07:26:24.417Z,100.00
2022-09-25T07:28:58.225Z,100.00
2022-09-25T07:31:31.791Z,100.00
2022-09-25T07:34:02.794Z,100.00
2022-09-25T07:36:30.742Z,100.00
2022-09-25T07:38:58.831Z,100.00
2022-09-25T07:41:26.745Z,100.00
2022-09-25T07:46:46.513Z,100.00
2022-09-25T07:49:14.406Z,100.00
2022-09-25T07:51:42.378Z,100.00
2022-09-25T07:54:10.057Z,100.00
2022-09-25T07:56:38.480Z,100.00
2022-09-25T07:59:06.760Z,100.00
2022-09-25T08:01:38.228Z,100.00
2022-09-25T08:04:08.769Z,100.00
2022-09-25T08:06:36.720Z,100.00
2022-09-25T08:09:09.641Z,100.00
2022-09-25T08:11:38.527Z,100.00
2022-09-25T08:14:06.244Z,100.00
2022-09-25T08:16:33.765Z,100.00
2022-09-25T08:19:01.278Z,100.00
2022-09-25T08:21:28.815Z,100.00
2022-09-25T08:23:58.095Z,100.00
2022-09-25T08:26:28.341Z,100.00
2022-09-25T08:28:56.878Z,100.00
2022-09-25T08:31:24.648Z,100.00
2022-09-25T08:33:52.231Z,100.00
2022-09-25T08:36:21.607Z,97.48
2022-09-25T08:38:49.501Z,94.45
2022-09-25T08:41:35.692Z,91.64
2022-09-25T08:44:21.326Z,91.98
2022-09-25T08:47:22.111Z,88.90
2022-09-25T08:50:16.338Z,85.43
2022-09-25T08:52:47.155Z,84.51
2022-09-25T08:55:50.497Z,83.05
2022-09-25T08:58:29.179Z,80.21
2022-09-25T09:01:04.757Z,78.69
2022-09-25T09:03:36.603Z,80.61
2022-09-25T09:06:12.857Z,80.93
2022-09-25T09:08:42.961Z,81.80
2022-09-25T09:11:23.940Z,80.75
2022-09-25T09:14:04.156Z,78.68
2022-09-25T09:16:49.852Z,76.17
2022-09-25T09:19:17.869Z,75.47
2022-09-25T09:22:03.271Z,74.25
2022-09-25T09:24:55.875Z,75.35
2022-09-25T09:27:42.781Z,76.52
2022-09-25T09:30:17.455Z,74.95
2022-09-25T09:33:06.160Z,69.53
2022-09-25T09:35:45.938Z,67.88
2022-09-25T09:38:31.782Z,64.54
2022-09-25T09:41:13.767Z,60.61
2022-09-25T09:43:57.835Z,58.14
2022-09-25T09:46:38.358Z,54.71
2022-09-25T09:49:21.461Z,60.36
2022-09-25T09:52:03.955Z,56.79
2022-09-25T09:55:07.760Z,55.42
2022-09-25T09:57:45.511Z,53.37
2022-09-25T10:00:18.887Z,52.76
2022-09-25T10:02:55.718Z,48.74
2022-09-25T10:05:30.930Z,50.06
2022-09-25T10:07:58.731Z,52.40
2022-09-25T10:10:39.107Z,52.42
2022-09-25T10:13:16.835Z,53.18
2022-09-25T10:16:11.593Z,57.75
2022-09-25T10:19:01.159Z,60.19
2022-09-25T10:21:42.366Z,53.72
2022-09-25T10:24:10.138Z,53.88
2022-09-25T10:26:40.516Z,55.44
2022-09-25T10:29:08.095Z,54.43
2022-09-25T10:31:40.838Z,47.29
2022-09-25T10:34:17.714Z,43.73
2022-09-25T10:36:48.935Z,41.53
2022-09-25T10:39:46.971Z,42.04
2022-09-25T10:42:41.037Z,42.79
2022-09-25T10:45:29.982Z,44.04
2022-09-25T10:48:16.379Z,44.22
2022-09-25T10:50:45.163Z,42.95
2022-09-25T10:53:30.405Z,43.77
2022-09-25T10:56:08.588Z,44.03
2022-09-25T10:58:54.936Z,42.77
2022-09-25T11:01:35.473Z,41.63
2022-09-25T11:04:25.893Z,43.28
2022-09-25T11:06:58.293Z,42.72
2022-09-25T11:09:28.515Z,41.04
2022-09-25T11:12:14.527Z,39.23
2022-09-25T11:14:57.461Z,41.37
2022-09-25T11:17:45.714Z,44.07
2022-09-25T11:20:17.833Z,46.27
2022-09-25T11:23:11.367Z,45.96
2022-09-25T11:26:07.417Z,47.38
2022-09-25T11:28:57.895Z,45.79
2022-09-25T11:31:37.506Z,48.05
2022-09-25T11:34:43.087Z,48.96
2022-09-25T11:37:54.270Z,48.71
2022-09-25T11:41:03.188Z,49.31
2022-09-25T11:43:41.450Z,49.50
2022-09-25T11:46:50.377Z,51.15
2022-09-25T11:49:24.590Z,51.71
2022-09-25T11:52:05.970Z,53.27
2022-09-25T11:55:07.613Z,53.74
2022-09-25T11:58:01.125Z,53.96
2022-09-25T12:01:06.234Z,54.54
2022-09-25T12:03:54.652Z,51.92
2022-09-25T12:06:36.784Z,50.54
2022-09-25T12:09:18.292Z,51.80
2022-09-25T12:11:52.300Z,54.05
2022-09-25T12:14:31.768Z,55.37
2022-09-25T12:17:17.939Z,53.45
2022-09-25T12:19:56.994Z,53.94
2022-09-25T12:23:01.814Z,55.03
2022-09-25T12:25:29.780Z,58.06
2022-09-25T12:28:16.503Z,57.72
2022-09-25T12:31:01.236Z,60.73
2022-09-25T12:33:34.549Z,58.41
2022-09-25T12:36:17.977Z,56.79
2022-09-25T12:38:55.492Z,55.60
2022-09-25T12:41:36.346Z,53.11
2022-09-25T12:44:12.284Z,51.13
2022-09-25T12:46:57.653Z,50.46
2022-09-25T12:49:44.904Z,46.04
2022-09-25T12:52:33.501Z,43.03
2022-09-25T12:55:13.657Z,39.81
2022-09-25T12:57:49.780Z,40.83
2022-09-25T13:00:25.971Z,42.27
2022-09-25T13:03:22.320Z,41.24
2022-09-25T13:05:59.188Z,41.61
2022-09-25T13:08:37.843Z,43.62
2022-09-25T13:11:05.403Z,44.10
2022-09-25T13:13:40.750Z,46.05
2022-09-25T13:16:08.947Z,43.69
2022-09-25T13:18:36.528Z,43.93
2022-09-25T13:21:23.879Z,44.88
2022-09-25T13:23:54.583Z,45.64
2022-09-25T13:26:27.796Z,46.00
2022-09-25T13:28:58.787Z,47.03
2022-09-25T13:31:30.955Z,47.92
2022-09-25T13:34:01.489Z,48.92
2022-09-25T13:36:34.559Z,49.97
2022-09-25T13:39:34.153Z,48.71
2022-09-25T13:42:08.186Z,49.37
2022-09-25T13:44:45.099Z,49.39
2022-09-25T13:47:24.938Z,47.66
2022-09-25T13:50:19.126Z,45.92
2022-09-25T13:52:46.765Z,43.73
2022-09-25T13:55:20.196Z,42.35
2022-09-25T13:57:57.373Z,44.19
2022-09-25T14:00:27.165Z,44.18
2022-09-25T14:03:01.608Z,44.12
2022-09-25T14:05:38.389Z,41.89
2022-09-25T14:08:13.963Z,42.67
2022-09-25T14:10:50.956Z,45.15
2022-09-25T14:13:25.381Z,47.55
2022-09-25T14:15:57.111Z,51.02
2022-09-25T14:18:43.983Z,53.77
2022-09-25T14:21:15.280Z,54.29
2022-09-25T14:23:52.024Z,55.54
2022-09-25T14:26:22.749Z,58.61
2022-09-25T14:28:51.820Z,59.85
2022-09-25T14:31:31.987Z,60.45
2022-09-25T14:34:20.912Z,60.35
2022-09-25T14:37:11.291Z,55.22
2022-09-25T14:39:54.796Z,53.10
2022-09-25T14:42:27.291Z,53.12
2022-09-25T14:45:20.700Z,54.60
2022-09-25T14:47:51.484Z,56.00
2022-09-25T14:50:30.260Z,56.70
2022-09-25T14:53:02.123Z,55.97
2022-09-25T14:55:39.615Z,54.60
2022-09-25T14:58:10.062Z,53.72
2022-09-25T15:00:46.827Z,56.55
2022-09-25T15:03:19.213Z,57.27
2022-09-25T15:05:48.848Z,55.68
2022-09-25T15:08:30.789Z,54.16
2022-09-25T15:11:11.212Z,55.12
2022-09-25T15:13:39.531Z,56.77
2022-09-25T15:16:35.690Z,59.95
2022-09-25T15:19:12.467Z,61.38
2022-09-25T15:21:43.424Z,63.95
2022-09-25T15:24:16.035Z,64.00
2022-09-25T15:26:52.229Z,66.24
2022-09-25T15:29:24.291Z,64.49
2022-09-25T15:31:52.574Z,63.64
2022-09-25T15:34:23.776Z,63.32
2022-09-25T15:36:52.223Z,62.44
2022-09-25T15:39:25.306Z,61.06
2022-09-25T15:41:53.105Z,61.95
2022-09-25T15:44:26.690Z,62.76
2022-09-25T15:46:56.092Z,62.59
2022-09-25T15:49:32.426Z,62.03
2022-09-25T15:52:32.549Z,66.55
2022-09-25T15:55:03.625Z,68.23
2022-09-25T15:57:32.239Z,70.51
2022-09-25T16:00:26.324Z,70.73
2022-09-25T16:03:21.602Z,71.86
2022-09-25T16:05:50.457Z,74.11
2022-09-25T16:08:24.355Z,75.83
2022-09-25T16:11:10.431Z,76.79
2022-09-25T16:13:41.656Z,77.67
2022-09-25T16:16:30.050Z,79.08
2022-09-25T16:19:00.381Z,78.96
2022-09-25T16:21:33.936Z,78.98
2022-09-25T16:24:07.397Z,79.78
2022-09-25T16:26:42.073Z,80.34
2022-09-25T16:29:12.779Z,81.13
2022-09-25T16:31:43.852Z,82.15
2022-09-25T16:34:26.471Z,83.20
2022-09-25T16:36:58.272Z,83.37
2022-09-25T16:39:32.866Z,85.38
2022-09-25T16:42:42.145Z,86.84
2022-09-25T16:45:34.361Z,88.28
2022-09-25T16:48:34.940Z,89.45
2022-09-25T16:51:02.754Z,89.44
2022-09-25T16:53:30.412Z,89.57
2022-09-25T16:55:59.236Z,90.86
2022-09-25T16:58:26.746Z,91.00
2022-09-25T17:00:54.346Z,92.17
2022-09-25T17:03:22.127Z,93.04
2022-09-25T17:05:49.888Z,92.63
2022-09-25T17:08:20.628Z,92.52
2022-09-25T17:10:51.511Z,93.13
2022-09-25T17:13:26.614Z,93.39
2022-09-25T17:15:55.845Z,93.39
2022-09-25T17:18:23.550Z,94.29
2022-09-25T17:20:53.012Z,94.84
2022-09-25T17:23:22.185Z,94.59
2022-09-25T17:26:16.032Z,95.07
2022-09-25T17:28:44.515Z,95.83
2022-09-25T17:31:16.074Z,96.89
2022-09-25T17:33:43.670Z,97.24
2022-09-25T17:36:12.423Z,96.98
2022-09-25T17:38:40.089Z,96.87
2022-09-25T17:41:31.305Z,97.70
2022-09-25T17:43:59.785Z,99.46
2022-09-25T17:46:27.877Z,100.00
2022-09-25T17:48:55.504Z,100.00
2022-09-25T17:51:26.253Z,100.00
2022-09-25T17:53:56.074Z,100.00
2022-09-25T17:56:25.723Z,100.00
2022-09-25T17:58:57.395Z,100.00
2022-09-25T18:01:28.303Z,100.00
2022-09-25T18:04:00.904Z,100.00
2022-09-25T18:06:30.479Z,100.00
2022-09-25T18:08:58.993Z,100.00
2022-09-25T18:11:27.303Z,100.00
2022-09-25T18:13:57.037Z,100.00
2022-09-25T18:16:28.872Z,100.00
2022-09-25T18:19:15.749Z,100.00
2022-09-25T18:22:02.579Z,100.00
2022-09-25T18:24:30.351Z,100.00
2022-09-25T18:26:58.533Z,100.00
2022-09-25T18:29:26.978Z,100.00
2022-09-25T18:31:54.631Z,100.00
2022-09-25T18:34:22.867Z,100.00
2022-09-25T18:36:50.792Z,100.00
2022-09-25T18:39:20.439Z,100.00
2022-09-25T18:41:48.482Z,100.00
2022-09-25T18:44:17.897Z,100.00
2022-09-25T18:46:46.034Z,100.00
2022-09-25T18:49:13.736Z,100.00
2022-09-25T18:51:42.015Z,100.00
2022-09-25T18:54:13.165Z,100.00
2022-09-25T18:56:42.597Z,100.00
2022-09-25T18:59:11.028Z,100.00
2022-09-25T19:01:39.814Z,100.00
2022-09-25T19:04:08.357Z,100.00
2022-09-25T19:06:35.992Z,100.00
2022-09-25T19:09:05.143Z,100.00
2022-09-25T19:11:33.145Z,100.00
2022-09-25T19:14:04.659Z,100.00
2022-09-25T19:16:38.007Z,100.00
2022-09-25T19:19:06.309Z,100.00
2022-09-25T19:21:34.125Z,100.00
2022-09-25T19:24:02.011Z,100.00
2022-09-25T19:26:31.037Z,100.00
2022-09-25T19:29:00.556Z,100.00
2022-09-25T19:31:28.856Z,100.00
2022-09-25T19:33:58.034Z,100.00
2022-09-25T19:36:30.559Z,100.00
2022-09-25T19:38:59.870Z,100.00
2022-09-25T19:41:34.368Z,100.00
2022-09-25T19:44:12.336Z,100.00
2022-09-25T19:46:46.406Z,100.00
2022-09-25T19:49:16.761Z,100.00
2022-09-25T19:51:45.100Z,100.00
2022-09-25T19:54:15.034Z,100.00
2022-09-25T19:56:46.302Z,100.00
2022-09-25T19:59:15.748Z,100.00
2022-09-25T20:01:43.734Z,100.00
2022-09-25T20:04:17.465Z,100.00
2022-09-25T20:06:47.094Z,100.00
2022-09-25T20:09:15.041Z,100.00
2022-09-25T20:11:43.496Z,100.00
2022-09-25T20:14:11.434Z,100.00
2022-09-25T20:16:39.009Z,100.00
2022-09-25T20:19:07.628Z,100.00
2022-09-25T20:21:37.920Z,100.00
2022-09-25T20:24:08.117Z,100.00
2022-09-25T20:26:36.652Z,100.00
2022-09-25T20:29:12.561Z,100.00
2022-09-25T20:31:42.893Z,100.00
2022-09-25T20:34:16.534Z,100.00
2022-09-25T20:36:44.529Z,100.00
2022-09-25T20:39:15.604Z,100.00
2022-09-25T20:41:46.643Z,100.00
2022-09-25T20:44:14.897Z,100.00
2022-09-25T20:46:42.642Z,100.00
2022-09-25T20:49:11.765Z,100.00
2022-09-25T20:51:41.333Z,100.00
2022-09-25T20:54:10.255Z,100.00
2022-09-25T20:56:43.730Z,100.00
2022-09-25T20:59:12.316Z,100.00
2022-09-25T21:01:41.553Z,100.00
2022-09-25T21:04:10.388Z,100.00
2022-09-25T21:06:40.346Z,100.00
2022-09-25T21:09:20.360Z,100.00
2022-09-25T21:11:48.954Z,100.00
2022-09-25T21:14:25.454Z,100.00
2022-09-25T21:16:56.303Z,100.00
2022-09-25T21:19:24.613Z,100.00
2022-09-25T21:21:52.301Z,100.00
2022-09-25T21:24:21.369Z,100.00
2022-09-25T21:26:49.936Z,100.00
2022-09-25T21:29:18.231Z,100.00
2022-09-25T21:31:49.910Z,100.00
2022-09-25T21:34:19.139Z,100.00
2022-09-25T21:36:47.484Z,100.00
2022-09-25T21:39:15.571Z,100.00
2022-09-25T21:41:43.808Z,100.00
2022-09-25T21:44:14.153Z,100.00
2022-09-25T21:46:44.060Z,100.00
2022-09-25T21:49:17.379Z,100.00
2022-09-25T21:51:46.473Z,100.00
2022-09-25T21:54:15.746Z,100.00
2022-09-25T21:56:44.589Z,100.00
2022-09-25T21:59:13.214Z,100.00
2022-09-25T22:01:41.107Z,100.00
2022-09-25T22:04:12.890Z,100.00
2022-09-25T22:06:47.200Z,100.00
2022-09-25T22:09:21.819Z,100.00
2022-09-25T22:11:51.181Z,100.00
2022-09-25T22:14:20.730Z,100.00
2022-09-25T22:16:50.487Z,100.00
2022-09-25T22:19:23.508Z,100.00
2022-09-25T22:21:53.387Z,100.00
2022-09-25T22:24:22.709Z,100.00
2022-09-25T22:26:51.939Z,100.00
2022-09-25T22:29:20.938Z,100.00
2022-09-25T22:31:48.901Z,100.00
2022-09-25T22:34:26.488Z,100.00
2022-09-25T22:36:59.607Z,100.00
2022-09-25T22:39:28.295Z,100.00
2022-09-25T22:41:57.258Z,100.00
2022-09-25T22:44:25.818Z,100.00
2022-09-25T22:46:54.033Z,100.00
2022-09-25T22:49:21.846Z,100.00
2022-09-25T22:51:49.416Z,100.00
2022-09-25T22:54:16.976Z,100.00
2022-09-25T22:56:45.096Z,100.00
2022-09-25T22:59:18.988Z,100.00
2022-09-25T23:01:52.459Z,100.00
2022-09-25T23:04:23.292Z,100.00
2022-09-25T23:06:52.084Z,100.00
2022-09-25T23:09:22.725Z,100.00
2022-09-25T23:11:50.710Z,100.00
2022-09-25T23:14:22.014Z,100.00
2022-09-25T23:16:51.890Z,100.00
2022-09-25T23:19:20.888Z,100.00
2022-09-25T23:21:51.290Z,100.00
2022-09-25T23:24:20.137Z,100.00
2022-09-25T23:26:48.748Z,100.00
2022-09-25T23:29:18.598Z,100.00
2022-09-25T23:31:47.428Z,100.00
2022-09-25T23:34:15.298Z,100.00
2022-09-25T23:36:42.967Z,100.00
2022-09-25T23:39:17.010Z,100.00
2022-09-25T23:41:44.662Z,100.00
2022-09-25T23:44:13.653Z,100.00
2022-09-25T23:46:43.145Z,100.00
2022-09-25T23:49:11.559Z,100.00
2022-09-25T23:51:39.278Z,100.00
2022-09-25T23:54:06.851Z,100.00
2022-09-25T23:56:35.811Z,100.00
2022-09-25T23:59:05.173Z,100.00
